Time;durP1;ratioP1;P1;durP2;ratioP2;P2;SDS_P1;SDS_P2;PMS_P1;PMS_P2;Temp;Humidity;BMP_temperature;BMP_pressure;BME280_temperature;BME280_humidity;BME280_pressure;Samples;Min_cycle;Max_cycle;Signal;HPM_P1;HPM_P2
2022/03/02 00:00:08;;;;;;;9.61;8.75;;;;;;;5.28;63.05;101600.25;475003;111;922709;-69
2022/03/02 00:01:15;;;;;;;10.34;8.68;;;;;;;5.27;62.96;101597.70;472732;111;922683;-70
2022/03/02 00:02:18;;;;;;;10.34;9.34;;;;;;;5.25;62.95;101584.33;472200;111;922832;-70
2022/03/02 00:03:21;;;;;;;10.87;9.99;;;;;;;5.25;62.99;101594.28;475807;111;922546;-69
2022/03/02 00:04:24;;;;;;;11.10;9.97;;;;;;;5.24;63.03;101585.32;473001;111;922624;-69
2022/03/02 00:05:27;;;;;;;10.54;9.41;;;;;;;5.24;63.04;101585.32;472444;111;922655;-69
2022/03/02 00:06:31;;;;;;;10.03;9.09;;;;;;;5.25;63.06;101583.47;472040;111;922496;-68
2022/03/02 00:07:34;;;;;;;10.41;9.47;;;;;;;5.25;63.11;101583.47;472577;111;922574;-71
2022/03/02 00:08:37;;;;;;;9.81;8.91;;;;;;;5.25;62.94;101584.33;471065;111;922631;-69
2022/03/02 00:09:40;;;;;;;9.58;8.66;;;;;;;5.25;62.94;101584.33;470943;111;930548;-70
2022/03/02 00:10:45;;;;;;;9.91;9.01;;;;;;;5.25;63.00;101587.03;473745;111;922931;-70
2022/03/02 00:11:48;;;;;;;10.72;9.23;;;;;;;5.24;63.04;101582.63;472532;111;922824;-69
2022/03/02 00:12:58;;;;;;;9.61;8.81;;;;;;;5.26;63.08;101582.47;473605;111;922502;-70
2022/03/02 00:14:06;;;;;;;10.72;9.74;;;;;;;5.25;63.04;101580.77;470268;111;922518;-69
2022/03/02 00:15:14;;;;;;;9.73;8.83;;;;;;;5.25;63.06;101576.22;470882;111;922984;-69
2022/03/02 00:16:18;;;;;;;9.54;8.66;;;;;;;5.25;63.08;101576.22;470363;111;922533;-69
2022/03/02 00:17:21;;;;;;;9.41;8.64;;;;;;;5.26;63.05;101580.62;472040;111;922524;-68
2022/03/02 00:18:24;;;;;;;9.58;8.68;;;;;;;5.27;62.99;101573.36;474132;111;922955;-69
2022/03/02 00:19:27;;;;;;;10.82;9.83;;;;;;;5.26;63.00;101577.91;469920;111;922561;-68
2022/03/02 00:20:30;;;;;;;9.48;8.56;;;;;;;5.26;63.00;101580.62;471806;111;922534;-70
2022/03/02 00:21:33;;;;;;;9.33;8.56;;;;;;;5.25;63.00;101584.33;472576;111;922563;-71
2022/03/02 00:22:37;;;;;;;9.99;8.81;;;;;;;5.25;62.98;101580.77;469924;111;923057;-71
2022/03/02 00:23:40;;;;;;;8.84;8.10;;;;;;;5.24;63.00;101569.09;471437;111;922540;-68
2022/03/02 00:24:43;;;;;;;9.88;8.97;;;;;;;5.25;63.01;101578.06;473998;111;922866;-68
2022/03/02 00:25:46;;;;;;;9.46;8.62;;;;;;;5.24;62.94;101582.63;470193;111;922905;-69
2022/03/02 00:26:51;;;;;;;10.21;8.21;;;;;;;5.25;62.95;101587.03;470598;111;930573;-70
2022/03/02 00:27:55;;;;;;;9.77;8.87;;;;;;;5.25;62.98;101586.17;470462;111;922437;-68
2022/03/02 00:28:58;;;;;;;10.78;9.54;;;;;;;5.25;62.95;101578.91;473683;111;922934;-71
2022/03/02 00:30:01;;;;;;;9.71;8.82;;;;;;;5.25;62.98;101578.06;471665;111;922616;-69
2022/03/02 00:31:05;;;;;;;9.21;8.39;;;;;;;5.25;63.05;101584.33;470885;111;922812;-71
2022/03/02 00:32:07;;;;;;;9.60;8.77;;;;;;;5.25;62.96;101573.51;474644;111;931310;-70
2022/03/02 00:33:10;;;;;;;10.10;9.19;;;;;;;5.26;62.92;101580.62;471910;111;922550;-71
2022/03/02 00:34:14;;;;;;;9.59;8.59;;;;;;;5.25;62.94;101573.51;471952;111;922777;-70
2022/03/02 00:35:17;;;;;;;9.03;7.90;;;;;;;5.26;62.90;101575.22;474814;111;923004;-69
2022/03/02 00:36:20;;;;;;;9.06;8.21;;;;;;;5.26;62.92;101572.51;474529;111;922607;-69
2022/03/02 00:37:23;;;;;;;9.90;8.98;;;;;;;5.27;62.89;101565.25;470770;111;923517;-68
2022/03/02 00:38:26;;;;;;;9.95;9.05;;;;;;;5.26;62.87;101567.10;469629;111;922475;-69
2022/03/02 00:39:29;;;;;;;8.86;8.02;;;;;;;5.25;62.86;101568.10;472012;111;922586;-69
2022/03/02 00:40:33;;;;;;;10.28;8.98;;;;;;;5.23;62.89;101569.28;471071;111;922974;-71
2022/03/02 00:41:36;;;;;;;9.86;8.98;;;;;;;5.23;62.88;101569.28;470598;111;922567;-69
2022/03/02 00:42:40;;;;;;;9.26;8.36;;;;;;;5.22;62.88;101567.58;469702;111;930708;-70
2022/03/02 00:43:43;;;;;;;9.87;8.94;;;;;;;5.21;62.87;101574.84;471037;111;922661;-71
2022/03/02 00:44:46;;;;;;;9.14;8.37;;;;;;;5.21;62.95;101569.42;470467;111;922982;-69
2022/03/02 00:45:48;;;;;;;9.56;8.68;;;;;;;5.22;62.87;101572.98;469766;111;922566;-68
2022/03/02 00:46:52;;;;;;;10.03;9.04;;;;;;;5.20;62.88;101570.42;472633;111;922595;-69
2022/03/02 00:47:55;;;;;;;8.92;8.04;;;;;;;5.19;62.83;101567.87;471908;111;922630;-71
2022/03/02 00:49:00;;;;;;;9.11;8.32;;;;;;;5.19;62.89;101570.58;471444;111;923005;-70
2022/03/02 00:50:05;;;;;;;9.49;8.64;;;;;;;5.19;62.95;101568.72;469366;111;922737;-70
2022/03/02 00:51:08;;;;;;;8.99;8.02;;;;;;;5.19;62.99;101567.87;472238;111;930441;-70
2022/03/02 00:52:14;;;;;;;8.59;7.79;;;;;;;5.20;62.98;101565.02;470563;111;922564;-70
2022/03/02 00:53:16;;;;;;;9.73;8.84;;;;;;;5.20;62.93;101578.53;472328;111;922538;-71
2022/03/02 00:54:20;;;;;;;9.01;8.16;;;;;;;5.22;62.87;101570.28;471052;111;922548;-69
2022/03/02 00:55:23;;;;;;;8.83;7.90;;;;;;;5.21;62.83;101572.13;469798;111;922682;-69
2022/03/02 00:56:26;;;;;;;9.18;8.21;;;;;;;5.21;62.87;101566.72;471456;111;922991;-69
2022/03/02 00:57:30;;;;;;;8.77;7.96;;;;;;;5.21;62.83;101572.13;471979;111;922750;-68
2022/03/02 00:58:33;;;;;;;8.71;7.88;;;;;;;5.22;62.80;101568.43;470580;111;922612;-70
2022/03/02 00:59:36;;;;;;;9.78;8.94;;;;;;;5.20;62.83;101567.72;469987;111;922952;-70
2022/03/02 01:00:39;;;;;;;9.59;8.73;;;;;;;5.20;62.83;101558.76;468986;111;922658;-70
2022/03/02 01:01:42;;;;;;;8.56;7.77;;;;;;;5.20;62.89;101564.17;471597;111;923123;-72
2022/03/02 01:02:46;;;;;;;9.63;8.73;;;;;;;5.20;62.89;101567.72;472156;111;922635;-71
2022/03/02 01:03:49;;;;;;;9.01;8.17;;;;;;;5.21;62.87;101566.72;473139;111;922899;-71
2022/03/02 01:04:52;;;;;;;10.54;9.51;;;;;;;5.21;62.87;101569.42;469745;111;922837;-70
2022/03/02 01:05:55;;;;;;;8.73;7.91;;;;;;;5.22;62.84;101571.12;466992;112;923052;-68
2022/03/02 01:06:58;;;;;;;9.96;9.06;;;;;;;5.20;62.85;101556.91;465720;112;922882;-70
2022/03/02 01:08:01;;;;;;;9.39;8.49;;;;;;;5.21;62.82;101561.31;467364;112;923056;-70
2022/03/02 01:09:04;;;;;;;9.31;8.42;;;;;;;5.20;62.83;101562.31;470391;112;922616;-70
2022/03/02 01:10:09;;;;;;;9.12;8.24;;;;;;;5.20;62.84;101556.05;473068;112;922699;-70
2022/03/02 01:11:12;;;;;;;9.53;8.63;;;;;;;5.19;62.86;101559.76;472623;112;922540;-70
2022/03/02 01:12:15;;;;;;;9.49;8.61;;;;;;;5.18;62.79;101560.79;468390;111;930495;-69
2022/03/02 01:13:18;;;;;;;9.34;8.44;;;;;;;5.15;62.88;101561.94;464888;112;923154;-70
2022/03/02 01:14:22;;;;;;;9.03;8.21;;;;;;;5.14;62.91;101560.23;467098;112;922597;-69
2022/03/02 01:15:25;;;;;;;9.92;8.34;;;;;;;5.13;62.97;101558.53;469398;111;923144;-70
2022/03/02 01:16:29;;;;;;;9.03;8.23;;;;;;;5.13;63.05;101561.23;467516;112;922796;-71
2022/03/02 01:17:32;;;;;;;9.47;8.57;;;;;;;5.11;62.98;101565.97;473152;112;922642;-70
2022/03/02 01:18:35;;;;;;;8.86;8.09;;;;;;;5.11;63.04;101557.00;472764;112;923075;-70
2022/03/02 01:19:39;;;;;;;9.41;8.42;;;;;;;5.11;63.11;101559.70;466042;111;922495;-70
2022/03/02 01:20:42;;;;;;;9.17;8.38;;;;;;;5.11;63.14;101557.00;465978;112;923133;-70
2022/03/02 01:21:45;;;;;;;9.43;8.51;;;;;;;5.12;63.09;101558.70;471407;112;922762;-70
2022/03/02 01:22:48;;;;;;;9.53;8.64;;;;;;;5.12;63.06;101556.00;465962;111;922908;-69
2022/03/02 01:23:53;;;;;;;8.52;7.69;;;;;;;5.11;63.08;101559.70;472463;112;922581;-69
2022/03/02 01:24:56;;;;;;;9.53;8.47;;;;;;;5.10;63.10;101556.15;464930;112;922577;-70
2022/03/02 01:25:59;;;;;;;9.11;8.22;;;;;;;5.10;63.12;101553.45;469126;111;922675;-71
2022/03/02 01:27:03;;;;;;;9.10;8.34;;;;;;;5.09;63.13;101557.15;464938;112;922649;-70
2022/03/02 01:28:06;;;;;;;9.02;8.17;;;;;;;5.10;63.17;101553.45;466061;112;923083;-71
2022/03/02 01:29:09;;;;;;;8.54;7.71;;;;;;;5.10;63.15;101556.15;468256;111;922622;-70
2022/03/02 01:30:12;;;;;;;9.02;8.22;;;;;;;5.09;63.23;101562.55;465194;112;922834;-71
2022/03/02 01:31:15;;;;;;;9.46;8.52;;;;;;;5.10;63.29;101560.70;465034;112;922711;-69
2022/03/02 01:32:19;;;;;;;9.13;8.33;;;;;;;5.09;63.38;101567.96;467764;111;922686;-70
2022/03/02 01:33:22;;;;;;;9.62;8.38;;;;;;;5.11;63.36;101567.81;470861;112;922496;-70
2022/03/02 01:34:24;;;;;;;9.21;7.83;;;;;;;5.11;63.38;101562.41;473331;112;922684;-70
2022/03/02 01:35:27;;;;;;;9.43;8.28;;;;;;;5.13;63.39;101563.12;469795;112;922554;-68
2022/03/02 01:36:31;;;;;;;9.42;8.51;;;;;;;5.13;63.40;101566.64;470985;111;922488;-69
2022/03/02 01:37:33;;;;;;;8.85;8.05;;;;;;;5.12;63.44;101556.86;473224;112;922756;-69
2022/03/02 01:38:36;;;;;;;9.11;8.26;;;;;;;5.12;63.46;101562.27;472350;112;922645;-70
2022/03/02 01:39:40;;;;;;;9.25;8.43;;;;;;;5.12;63.48;101570.38;466299;111;922592;-70
2022/03/02 01:40:43;;;;;;;9.69;8.74;;;;;;;5.12;63.46;101559.56;472490;112;922489;-69
2022/03/02 01:41:46;;;;;;;9.70;8.79;;;;;;;5.11;63.51;101555.16;470099;112;930585;-71
2022/03/02 01:42:49;;;;;;;9.46;8.29;;;;;;;5.11;63.43;101557.86;468449;112;930507;-69
2022/03/02 01:43:54;;;;;;;9.29;8.48;;;;;;;5.11;63.48;101554.30;465948;112;922569;-71
2022/03/02 01:44:57;;;;;;;9.36;8.48;;;;;;;5.12;63.49;101550.59;466306;112;922613;-70
2022/03/02 01:46:00;;;;;;;10.14;9.11;;;;;;;5.12;63.51;101547.89;469472;112;923817;-69
2022/03/02 01:47:05;;;;;;;9.88;8.61;;;;;;;5.13;63.51;101553.13;470006;111;922626;-68
2022/03/02 01:48:09;;;;;;;9.22;8.29;;;;;;;5.12;63.54;101548.75;472768;112;922953;-71
2022/03/02 01:49:12;;;;;;;9.65;8.76;;;;;;;5.14;63.60;101554.83;473270;112;922511;-68
2022/03/02 01:50:16;;;;;;;8.93;8.13;;;;;;;5.14;63.56;101553.97;467978;111;922777;-70
2022/03/02 01:51:20;;;;;;;9.70;8.72;;;;;;;5.15;63.63;101556.53;470330;112;930617;-70
2022/03/02 01:52:23;;;;;;;9.38;8.47;;;;;;;5.15;63.64;101553.83;466984;112;922542;-69
2022/03/02 01:53:26;;;;;;;10.65;8.81;;;;;;;5.15;63.61;101553.83;470122;112;922955;-71
2022/03/02 01:54:29;;;;;;;9.66;8.51;;;;;;;5.14;63.61;101557.53;468111;111;922661;-69
2022/03/02 01:55:32;;;;;;;10.52;9.01;;;;;;;5.14;63.65;101554.83;473112;112;923060;-71
2022/03/02 01:56:35;;;;;;;9.76;8.86;;;;;;;5.15;63.66;101558.38;473162;112;922907;-70
2022/03/02 01:57:40;;;;;;;11.11;10.01;;;;;;;5.13;63.63;101555.83;468577;111;922950;-69
2022/03/02 01:58:45;;;;;;;10.62;9.55;;;;;;;5.13;63.66;101546.89;468615;112;922955;-69
2022/03/02 01:59:48;;;;;;;11.60;9.13;;;;;;;5.12;63.70;101551.45;472236;112;930587;-70
2022/03/02 02:00:51;;;;;;;10.31;9.31;;;;;;;5.13;63.79;101553.13;471402;112;922617;-71
2022/03/02 02:01:55;;;;;;;21.16;8.76;;;;;;;5.13;63.78;101553.13;453493;115;922596;-70
2022/03/02 02:03:00;;;;;;;9.96;8.94;;;;;;;5.15;63.75;101544.86;454035;116;923215;-70
2022/03/02 02:04:04;;;;;;;9.98;9.04;;;;;;;5.14;63.60;101554.83;455302;115;923073;-69
2022/03/02 02:05:08;;;;;;;9.41;8.40;;;;;;;5.15;63.71;101553.83;452204;114;930626;-71
2022/03/02 02:06:13;;;;;;;9.39;8.49;;;;;;;5.15;63.71;101544.86;455864;114;922650;-71
2022/03/02 02:07:16;;;;;;;10.75;9.65;;;;;;;5.14;63.69;101546.72;459896;114;923307;-71
2022/03/02 02:08:20;;;;;;;10.34;9.36;;;;;;;5.14;63.72;101551.27;463046;113;922576;-71
2022/03/02 02:09:23;;;;;;;9.55;8.59;;;;;;;5.13;63.74;101550.42;459400;114;923034;-68
2022/03/02 02:10:26;;;;;;;10.78;9.74;;;;;;;5.13;63.69;101550.42;460662;113;922896;-70
2022/03/02 02:11:30;;;;;;;9.32;8.43;;;;;;;5.13;63.70;101552.30;458541;113;922637;-70
2022/03/02 02:12:33;;;;;;;10.06;8.97;;;;;;;5.13;63.70;101549.59;463588;113;922754;-69
2022/03/02 02:13:36;;;;;;;10.23;8.24;;;;;;;5.10;63.61;101545.34;465296;114;922548;-70
2022/03/02 02:14:39;;;;;;;9.81;8.81;;;;;;;5.10;63.69;101547.19;456005;115;922651;-69
2022/03/02 02:15:42;;;;;;;9.24;7.90;;;;;;;5.07;63.69;101547.52;454442;116;923011;-71
2022/03/02 02:16:46;;;;;;;10.07;9.14;;;;;;;5.06;63.74;101541.26;454878;116;922638;-69
2022/03/02 02:17:49;;;;;;;10.31;8.67;;;;;;;5.05;63.78;101544.95;454914;114;922646;-69
2022/03/02 02:18:55;;;;;;;9.21;8.40;;;;;;;5.06;63.79;101546.66;456292;115;922687;-69
2022/03/02 02:19:57;;;;;;;9.32;7.77;;;;;;;5.05;63.79;101536.85;455837;116;922589;-69
2022/03/02 02:21:02;;;;;;;8.95;8.02;;;;;;;5.04;63.63;101541.41;455754;116;923079;-68
2022/03/02 02:22:05;;;;;;;8.96;7.99;;;;;;;5.04;63.63;101541.41;453357;115;922767;-69
2022/03/02 02:23:09;;;;;;;9.13;8.23;;;;;;;5.04;63.75;101540.55;457751;116;922880;-69
2022/03/02 02:24:12;;;;;;;9.43;8.28;;;;;;;5.03;63.78;101539.70;463370;114;923080;-67
2022/03/02 02:25:15;;;;;;;10.32;7.92;;;;;;;5.04;63.80;101537.84;454393;114;923407;-70
2022/03/02 02:26:21;;;;;;;8.25;7.44;;;;;;;5.03;63.81;101536.14;457332;115;922711;-69
2022/03/02 02:27:24;;;;;;;8.51;7.69;;;;;;;5.02;63.89;101538.00;462334;113;923055;-69
2022/03/02 02:28:30;;;;;;;9.80;8.62;;;;;;;5.02;63.75;101537.14;455956;115;922665;-68
2022/03/02 02:29:34;;;;;;;9.07;8.17;;;;;;;5.01;63.76;101535.47;454970;116;922940;-70
2022/03/02 02:30:38;;;;;;;9.41;7.61;;;;;;;4.99;63.76;101540.17;453614;114;922545;-69
2022/03/02 02:31:41;;;;;;;8.54;7.55;;;;;;;4.96;63.79;101535.09;452598;115;923180;-70
2022/03/02 02:32:45;;;;;;;8.53;7.69;;;;;;;4.96;63.80;101543.20;456041;115;923112;-70
2022/03/02 02:33:48;;;;;;;8.06;7.29;;;;;;;4.93;63.82;101538.08;458084;114;922528;-71
2022/03/02 02:34:51;;;;;;;9.61;8.60;;;;;;;4.92;63.90;101537.23;457049;115;922568;-71
2022/03/02 02:35:55;;;;;;;8.51;7.59;;;;;;;4.91;63.97;101542.78;456856;115;922586;-70
2022/03/02 02:36:59;;;;;;;8.86;7.85;;;;;;;4.91;63.95;101540.94;457365;114;922631;-70
2022/03/02 02:38:02;;;;;;;8.92;7.98;;;;;;;4.92;63.93;101536.38;457327;114;923074;-70
2022/03/02 02:39:05;;;;;;;9.05;8.17;;;;;;;4.92;63.99;101530.98;457492;114;922989;-69
2022/03/02 02:40:11;;;;;;;8.65;7.75;;;;;;;4.91;64.02;101537.38;460690;114;922912;-69
2022/03/02 02:41:18;;;;;;;9.11;7.69;;;;;;;4.89;64.08;101532.16;460104;114;922535;-69
2022/03/02 02:42:22;;;;;;;8.18;7.24;;;;;;;4.88;64.08;101535.00;458039;113;922612;-68
2022/03/02 02:43:26;;;;;;;9.64;7.36;;;;;;;4.88;64.07;101535.00;457288;114;922873;-70
2022/03/02 02:44:29;;;;;;;8.66;7.79;;;;;;;4.87;64.21;101536.85;462694;114;922541;-68
2022/03/02 02:45:32;;;;;;;9.39;7.89;;;;;;;4.87;64.21;101533.30;461038;113;922675;-71
2022/03/02 02:46:35;;;;;;;8.44;7.32;;;;;;;4.85;64.25;101525.34;458829;114;922667;-68
2022/03/02 02:47:38;;;;;;;9.09;8.22;;;;;;;4.87;64.26;101530.59;460800;114;922344;-69
2022/03/02 02:48:41;;;;;;;8.39;7.48;;;;;;;4.85;64.28;101529.92;461667;114;922951;-69
2022/03/02 02:49:44;;;;;;;10.21;8.90;;;;;;;4.85;64.37;101533.44;459128;114;923097;-70
2022/03/02 02:50:48;;;;;;;8.92;7.67;;;;;;;4.85;64.35;101527.22;457534;115;922784;-69
2022/03/02 02:51:53;;;;;;;10.21;7.74;;;;;;;4.84;64.37;101525.52;463229;113;922557;-70
2022/03/02 02:52:59;;;;;;;8.31;7.39;;;;;;;4.84;64.39;101530.92;454715;115;922557;-70
2022/03/02 02:54:03;;;;;;;8.49;7.56;;;;;;;4.82;64.44;101528.36;453014;115;922433;-70
2022/03/02 02:55:09;;;;;;;9.37;7.84;;;;;;;4.82;64.45;101525.66;454687;116;922568;-69
2022/03/02 02:56:13;;;;;;;7.89;7.10;;;;;;;4.80;64.48;101522.25;451350;116;930797;-70
2022/03/02 02:57:16;;;;;;;10.81;8.21;;;;;;;4.80;64.52;101519.55;457187;114;922449;-71
2022/03/02 02:58:20;;;;;;;9.09;7.73;;;;;;;4.80;64.52;101524.10;455686;116;922478;-72
2022/03/02 02:59:24;;;;;;;8.23;7.36;;;;;;;4.80;64.62;101519.55;458496;115;923028;-69
2022/03/02 03:00:29;;;;;;;8.87;7.78;;;;;;;4.81;64.59;101523.10;458705;113;922490;-70
2022/03/02 03:01:33;;;;;;;10.42;8.14;;;;;;;4.81;64.61;101523.10;461275;115;922625;-69
2022/03/02 03:02:37;;;;;;;8.61;7.74;;;;;;;4.81;64.60;101520.41;460218;115;922395;-71
2022/03/02 03:03:40;;;;;;;7.78;6.81;;;;;;;4.80;64.56;101522.25;456111;115;923048;-70
2022/03/02 03:04:43;;;;;;;11.03;7.87;;;;;;;4.81;64.69;101520.41;453952;115;930485;-69
2022/03/02 03:05:47;;;;;;;9.14;8.21;;;;;;;4.81;64.63;101521.25;450223;115;922647;-69
2022/03/02 03:06:50;;;;;;;8.61;7.67;;;;;;;4.83;64.72;101518.41;453086;116;922969;-69
2022/03/02 03:07:53;;;;;;;9.01;8.04;;;;;;;4.82;64.70;101522.11;455128;115;930570;-69
2022/03/02 03:08:57;;;;;;;10.11;8.14;;;;;;;4.82;64.73;101519.41;455883;115;922895;-69
2022/03/02 03:09:59;;;;;;;8.97;8.06;;;;;;;4.82;64.77;101512.15;457939;114;923382;-71
2022/03/02 03:11:03;;;;;;;9.07;7.89;;;;;;;4.84;64.73;101514.70;452436;115;923454;-69
2022/03/02 03:12:06;;;;;;;11.12;7.91;;;;;;;4.83;64.70;101511.16;460244;115;922904;-68
2022/03/02 03:13:09;;;;;;;10.17;8.08;;;;;;;4.83;64.75;101497.64;461433;114;922540;-70
2022/03/02 03:14:14;;;;;;;9.26;7.92;;;;;;;4.84;64.72;101502.05;462136;113;922554;-71
2022/03/02 03:15:19;;;;;;;8.32;7.39;;;;;;;4.84;64.75;101499.34;465693;113;922612;-69
2022/03/02 03:16:22;;;;;;;9.29;7.96;;;;;;;4.86;64.69;101499.17;456177;116;931040;-68
2022/03/02 03:17:25;;;;;;;9.72;8.32;;;;;;;4.85;64.70;101495.61;456082;114;922558;-69
2022/03/02 03:18:28;;;;;;;9.82;8.88;;;;;;;4.83;64.78;101494.94;456925;116;922588;-69
2022/03/02 03:19:31;;;;;;;9.78;8.69;;;;;;;4.83;64.78;101494.94;457872;116;922717;-67
2022/03/02 03:20:35;;;;;;;10.60;8.28;;;;;;;4.83;64.84;101494.94;456552;115;922568;-71
2022/03/02 03:21:38;;;;;;;10.33;8.41;;;;;;;4.85;64.86;101494.80;455889;115;923533;-70
2022/03/02 03:22:41;;;;;;;9.29;8.31;;;;;;;4.85;64.87;101489.39;453469;116;922655;-69
2022/03/02 03:23:44;;;;;;;10.00;9.03;;;;;;;4.87;64.91;101492.77;454762;116;922799;-70
2022/03/02 03:24:47;;;;;;;9.76;8.42;;;;;;;4.87;64.86;101493.62;455263;115;922584;-72
2022/03/02 03:25:51;;;;;;;9.38;8.09;;;;;;;4.87;64.84;101496.31;454696;116;922570;-68
2022/03/02 03:26:54;;;;;;;9.25;8.30;;;;;;;4.87;64.91;101503.58;454587;116;922575;-70
2022/03/02 03:27:57;;;;;;;11.40;9.57;;;;;;;4.85;64.92;101494.80;459351;114;922703;-67
2022/03/02 03:29:00;;;;;;;8.92;7.89;;;;;;;4.84;64.93;101493.94;457976;114;922989;-69
2022/03/02 03:30:08;;;;;;;9.45;8.42;;;;;;;4.84;64.96;101496.64;455977;116;922579;-69
2022/03/02 03:31:11;;;;;;;10.14;8.41;;;;;;;4.85;64.97;101502.91;457157;114;923229;-69
2022/03/02 03:32:14;;;;;;;10.15;8.33;;;;;;;4.85;64.99;101500.20;458101;115;922583;-68
2022/03/02 03:33:17;;;;;;;9.08;8.13;;;;;;;4.84;64.97;101493.09;464457;113;922579;-68
2022/03/02 03:34:20;;;;;;;10.43;8.98;;;;;;;4.83;64.97;101492.23;457022;115;922613;-68
2022/03/02 03:35:25;;;;;;;9.81;8.28;;;;;;;4.83;65.04;101494.09;455857;115;922729;-70
2022/03/02 03:36:27;;;;;;;13.44;9.36;;;;;;;4.83;65.07;101491.39;457724;116;922521;-68
2022/03/02 03:37:30;;;;;;;9.74;8.29;;;;;;;4.83;65.08;101491.39;457832;116;922999;-70
2022/03/02 03:38:33;;;;;;;11.69;9.28;;;;;;;4.83;65.06;101491.39;454083;115;923000;-69
2022/03/02 03:39:37;;;;;;;10.28;9.28;;;;;;;4.83;65.07;101491.39;456444;115;922571;-68
2022/03/02 03:40:40;;;;;;;10.64;9.56;;;;;;;4.82;65.09;101486.98;454501;116;922546;-70
2022/03/02 03:41:42;;;;;;;10.17;9.02;;;;;;;4.82;65.11;101489.68;453694;116;922598;-69
2022/03/02 03:42:46;;;;;;;9.48;8.25;;;;;;;4.82;65.12;101484.28;457527;114;922450;-69
2022/03/02 03:43:49;;;;;;;11.55;9.08;;;;;;;4.82;65.08;101484.28;458163;114;922584;-70
2022/03/02 03:44:52;;;;;;;11.07;9.96;;;;;;;4.83;65.14;101486.84;458975;115;922531;-70
2022/03/02 03:45:55;;;;;;;11.56;9.81;;;;;;;4.83;65.20;101481.43;457900;114;923041;-71
2022/03/02 03:46:58;;;;;;;10.92;9.44;;;;;;;4.86;65.21;101493.77;457822;115;922649;-69
2022/03/02 03:48:01;;;;;;;10.68;9.40;;;;;;;4.86;65.20;101481.11;459252;115;922611;-71
2022/03/02 03:49:04;;;;;;;11.26;9.15;;;;;;;4.88;65.16;101483.66;457063;115;922591;-69
2022/03/02 03:50:08;;;;;;;9.36;8.41;;;;;;;4.89;65.14;101488.92;455452;114;922566;-69
2022/03/02 03:51:11;;;;;;;11.05;9.98;;;;;;;4.90;65.04;101487.06;456988;114;922608;-69
2022/03/02 03:52:14;;;;;;;10.06;8.99;;;;;;;4.90;65.07;101487.06;458373;114;922595;-69
2022/03/02 03:53:16;;;;;;;9.54;8.61;;;;;;;4.89;65.08;101485.36;456811;114;922602;-68
2022/03/02 03:54:19;;;;;;;10.81;9.07;;;;;;;4.89;65.04;101482.66;457263;114;922569;-69
2022/03/02 03:55:22;;;;;;;10.18;8.33;;;;;;;4.90;65.08;101476.26;460201;112;922575;-70
2022/03/02 03:56:25;;;;;;;8.57;7.72;;;;;;;4.91;65.06;101483.33;459014;114;922506;-70
2022/03/02 03:57:28;;;;;;;8.81;7.83;;;;;;;4.91;65.11;101486.03;460917;114;922528;-70
2022/03/02 03:58:31;;;;;;;9.67;8.67;;;;;;;4.92;65.10;101476.93;462575;113;922690;-71
2022/03/02 03:59:34;;;;;;;8.49;7.34;;;;;;;4.92;65.07;101483.19;463549;113;922823;-69
2022/03/02 04:00:37;;;;;;;8.35;7.56;;;;;;;4.93;65.03;101482.19;463258;113;922503;-69
2022/03/02 04:01:40;;;;;;;9.48;8.46;;;;;;;4.93;64.97;101475.93;457391;116;922543;-69
2022/03/02 04:02:45;;;;;;;8.23;7.39;;;;;;;4.93;65.00;101481.34;458147;114;922593;-69
2022/03/02 04:03:48;;;;;;;10.36;8.34;;;;;;;4.92;65.00;101479.63;456001;116;922965;-69
2022/03/02 04:04:51;;;;;;;9.29;8.28;;;;;;;4.91;64.97;101475.23;450959;117;923965;-69
2022/03/02 04:05:54;;;;;;;8.29;7.39;;;;;;;4.91;64.97;101488.73;469199;111;930592;-70
2022/03/02 04:06:57;;;;;;;10.64;8.36;;;;;;;4.91;65.06;101488.73;469485;111;922606;-71
2022/03/02 04:08:00;;;;;;;9.25;8.33;;;;;;;4.90;65.04;101485.22;471209;111;923022;-70
2022/03/02 04:09:04;;;;;;;8.43;7.54;;;;;;;4.89;65.15;101491.63;473254;111;930568;-70
2022/03/02 04:10:08;;;;;;;8.85;7.95;;;;;;;4.88;65.21;101487.22;469919;111;922959;-67
2022/03/02 04:11:12;;;;;;;9.01;8.11;;;;;;;4.88;65.24;101486.36;472603;111;922530;-69
2022/03/02 04:12:17;;;;;;;7.79;7.01;;;;;;;4.87;65.29;101485.51;471833;111;930543;-68
2022/03/02 04:13:20;;;;;;;8.98;7.94;;;;;;;4.88;65.33;101486.36;470624;111;923052;-70
2022/03/02 04:14:23;;;;;;;8.84;8.03;;;;;;;4.87;65.37;101490.06;470026;111;922743;-70
2022/03/02 04:15:26;;;;;;;8.76;7.94;;;;;;;4.87;65.37;101488.22;473297;111;922552;-69
2022/03/02 04:16:29;;;;;;;9.14;8.20;;;;;;;4.88;65.42;101480.95;469008;111;922690;-68
2022/03/02 04:17:32;;;;;;;9.33;8.42;;;;;;;4.88;65.46;101484.52;468953;111;923319;-68
2022/03/02 04:18:36;;;;;;;7.62;6.79;;;;;;;4.87;65.48;101482.81;472147;111;922570;-69
2022/03/02 04:19:39;;;;;;;8.10;7.28;;;;;;;4.88;65.48;101486.36;470294;111;922635;-70
2022/03/02 04:20:42;;;;;;;8.24;7.18;;;;;;;4.87;65.52;101481.95;471379;111;922462;-69
2022/03/02 04:21:45;;;;;;;8.67;7.26;;;;;;;4.86;65.57;101489.21;470115;111;930844;-70
2022/03/02 04:22:48;;;;;;;9.08;6.72;;;;;;;4.84;65.60;101483.13;474188;111;923023;-68
2022/03/02 04:23:51;;;;;;;9.00;7.98;;;;;;;4.83;65.63;101486.84;471531;111;922999;-69
2022/03/02 04:24:54;;;;;;;8.21;7.09;;;;;;;4.83;65.67;101485.98;471816;111;922983;-70
2022/03/02 04:25:58;;;;;;;8.53;7.47;;;;;;;4.81;65.72;101486.12;472365;111;923084;-68
2022/03/02 04:27:01;;;;;;;9.30;8.19;;;;;;;4.81;65.78;101487.98;469038;111;922809;-70
2022/03/02 04:28:04;;;;;;;8.58;7.78;;;;;;;4.80;65.76;101488.98;471405;111;930528;-68
2022/03/02 04:29:07;;;;;;;9.29;7.84;;;;;;;4.78;65.84;101478.34;470232;111;922537;-71
2022/03/02 04:30:13;;;;;;;9.09;7.86;;;;;;;4.77;65.95;101487.45;469927;111;923040;-71
2022/03/02 04:31:16;;;;;;;9.20;7.61;;;;;;;4.77;65.94;101489.30;469548;111;922622;-69
2022/03/02 04:32:19;;;;;;;8.54;7.11;;;;;;;4.77;66.01;101486.60;473720;111;922602;-70
2022/03/02 04:33:22;;;;;;;9.52;7.64;;;;;;;4.77;66.08;101484.75;472736;111;922950;-69
2022/03/02 04:34:25;;;;;;;10.22;8.75;;;;;;;4.78;66.12;101488.30;470986;111;922517;-69
2022/03/02 04:35:28;;;;;;;8.95;8.08;;;;;;;4.78;66.15;101485.60;472974;111;922509;-69
2022/03/02 04:36:31;;;;;;;9.47;8.47;;;;;;;4.79;66.16;101487.31;471344;111;922618;-70
2022/03/02 04:37:34;;;;;;;8.99;8.12;;;;;;;4.78;66.13;101483.75;471528;111;922922;-70
2022/03/02 04:38:37;;;;;;;8.61;7.61;;;;;;;4.79;66.17;101485.45;469695;111;923038;-69
2022/03/02 04:39:40;;;;;;;9.15;8.32;;;;;;;4.80;66.21;101478.17;471531;111;922933;-69
2022/03/02 04:40:43;;;;;;;8.29;7.49;;;;;;;4.80;66.20;101475.47;472322;111;922573;-69
2022/03/02 04:41:46;;;;;;;9.89;7.42;;;;;;;4.79;66.25;101480.05;470621;111;922697;-69
2022/03/02 04:42:49;;;;;;;8.49;7.69;;;;;;;4.80;66.25;101481.72;474591;111;922489;-71
2022/03/02 04:43:52;;;;;;;8.36;7.57;;;;;;;4.80;66.24;101483.58;471557;111;922633;-68
2022/03/02 04:44:55;;;;;;;7.83;7.01;;;;;;;4.79;66.25;101476.50;470605;111;922737;-69
2022/03/02 04:45:59;;;;;;;8.16;7.35;;;;;;;4.80;66.27;101483.58;472397;111;922592;-69
2022/03/02 04:47:02;;;;;;;8.49;7.62;;;;;;;4.80;66.30;101486.27;470148;111;922944;-68
2022/03/02 04:48:08;;;;;;;8.30;7.54;;;;;;;4.80;66.31;101486.27;471069;111;922704;-68
2022/03/02 04:49:12;;;;;;;8.37;7.53;;;;;;;4.80;66.35;101486.27;470749;111;923264;-69
2022/03/02 04:50:19;;;;;;;8.90;6.86;;;;;;;4.80;66.36;101480.87;469110;112;922770;-72
2022/03/02 04:51:21;;;;;;;7.76;6.71;;;;;;;4.80;66.38;101475.47;469741;111;922756;-70
2022/03/02 04:52:23;;;;;;;7.66;6.94;;;;;;;4.81;66.35;101479.88;469564;111;922701;-69
2022/03/02 04:53:26;;;;;;;7.76;7.01;;;;;;;4.81;66.41;101482.58;472963;111;922538;-69
2022/03/02 04:55:52;;;;;;;7.41;6.71;;;;;;;4.82;66.21;101479.73;471470;111;922518;-69